Rechercher aéroport 
image banner adimage banner adimage banner ad
image banner ad

9CL9 - Spezia

Situé à Walnut Grove, United States

ICAO - 9CL9, IATA -

Données fournies par Airmate  

Information générale

Coordonnées: N38°12'60" W121°32'4"
Élévation : feet MSL.
Variation magnétique : 16° East
Voir autres Aéroports à California

Données opérationnelles

Special qualification required
Heure actuelle UTC:
Heure actuelle locale:
Météo à : KSAC - Sacramento Executive ( 33 km )
METAR: KSAC 180653Z AUTO 19007KT 10SM CLR 14/11 A2996 RMK AO2 SLP145 T01390106
TAF: KSAC 180526Z 1806/1906 21010KT P6SM SKC FM181400 20012G18KT P6SM BKN015 FM182000 21011G17KT P6SM BKN250 FM190400 21008KT P6SM BKN050
Voir NOTAMs / SUP AIP / TFR affectant cet aéroport [VIEW]
Fréquences de communication: [VIEW]

Pistes:

Identifiant RWYQFULongueur (ft)Largeur (ft)SurfaceLDA (ft)
072500100EARTH
252500100EARTH

Coordonnées de l'aéroport

Adresse: Walnut Grove United States

Vue satellite de 9CL9